createdAt,value
2022-10-25T00:00:02.385Z,100.00
2022-10-25T00:02:41.937Z,100.00
2022-10-25T00:05:16.151Z,100.00
2022-10-25T00:07:46.334Z,100.00
2022-10-25T00:10:21.113Z,100.00
2022-10-25T00:12:54.547Z,100.00
2022-10-25T00:15:24.895Z,100.00
2022-10-25T00:17:54.702Z,100.00
2022-10-25T00:20:24.432Z,100.00
2022-10-25T00:22:54.288Z,99.33
2022-10-25T00:25:26.678Z,98.98
2022-10-25T00:27:56.471Z,98.80
2022-10-25T00:30:26.214Z,98.00
2022-10-25T00:32:55.969Z,98.96
2022-10-25T00:35:25.809Z,98.81
2022-10-25T00:37:55.573Z,97.90
2022-10-25T00:40:27.891Z,98.11
2022-10-25T00:42:57.627Z,98.60
2022-10-25T00:45:29.212Z,98.45
2022-10-25T00:48:01.961Z,98.74
2022-10-25T00:50:50.222Z,97.54
2022-10-25T00:53:23.248Z,98.20
2022-10-25T00:56:02.061Z,97.37
2022-10-25T00:58:36.586Z,98.14
2022-10-25T01:01:09.644Z,98.54
2022-10-25T01:03:42.628Z,98.83
2022-10-25T01:06:21.436Z,98.79
2022-10-25T01:08:52.828Z,100.00
2022-10-25T01:11:25.323Z,100.00
2022-10-25T01:13:55.607Z,100.00
2022-10-25T01:16:34.910Z,100.00
2022-10-25T01:19:23.525Z,99.87
2022-10-25T01:21:56.774Z,100.00
2022-10-25T01:25:00.808Z,100.00
2022-10-25T01:27:59.994Z,100.00
2022-10-25T01:30:38.060Z,100.00
2022-10-25T01:33:23.271Z,100.00
2022-10-25T01:36:00.163Z,100.00
2022-10-25T01:38:41.672Z,100.00
2022-10-25T01:41:20.438Z,100.00
2022-10-25T01:44:00.110Z,100.00
2022-10-25T01:46:35.586Z,100.00
2022-10-25T01:49:14.803Z,100.00
2022-10-25T01:51:44.552Z,100.00
2022-10-25T01:54:22.745Z,100.00
2022-10-25T01:57:06.343Z,100.00
2022-10-25T01:59:51.188Z,100.00
2022-10-25T02:02:27.248Z,100.00
2022-10-25T02:05:07.955Z,100.00
2022-10-25T02:07:41.105Z,100.00
2022-10-25T02:10:14.912Z,100.00
2022-10-25T02:12:54.682Z,100.00
2022-10-25T02:15:28.792Z,100.00
2022-10-25T02:18:02.917Z,100.00
2022-10-25T02:20:40.787Z,100.00
2022-10-25T02:23:13.104Z,100.00
2022-10-25T02:25:45.315Z,100.00
2022-10-25T02:28:17.382Z,100.00
2022-10-25T02:30:47.619Z,100.00
2022-10-25T02:33:17.415Z,100.00
2022-10-25T02:36:07.658Z,100.00
2022-10-25T02:38:38.086Z,100.00
2022-10-25T02:41:09.166Z,100.00
2022-10-25T02:43:38.995Z,100.00
2022-10-25T02:46:09.971Z,100.00
2022-10-25T02:48:40.252Z,100.00
2022-10-25T02:51:14.138Z,100.00
2022-10-25T02:53:44.018Z,100.00
2022-10-25T02:56:16.086Z,100.00
2022-10-25T02:58:48.788Z,100.00
2022-10-25T03:01:21.446Z,100.00
2022-10-25T03:03:51.550Z,100.00
2022-10-25T03:06:24.260Z,100.00
2022-10-25T03:08:53.985Z,100.00
2022-10-25T03:11:23.728Z,100.00
2022-10-25T03:13:53.470Z,100.00
2022-10-25T03:16:23.213Z,100.00
2022-10-25T03:18:53.079Z,100.00
2022-10-25T03:21:25.387Z,100.00
2022-10-25T03:23:55.860Z,100.00
2022-10-25T03:26:25.778Z,100.00
2022-10-25T03:28:55.552Z,100.00
2022-10-25T03:31:25.284Z,100.00
2022-10-25T03:33:55.003Z,100.00
2022-10-25T03:36:27.391Z,100.00
2022-10-25T03:38:57.175Z,100.00
2022-10-25T03:41:27.112Z,100.00
2022-10-25T03:43:56.852Z,100.00
2022-10-25T03:46:26.617Z,100.00
2022-10-25T03:48:56.370Z,100.00
2022-10-25T03:51:28.792Z,100.00
2022-10-25T03:53:58.551Z,100.00
2022-10-25T03:56:28.341Z,100.00
2022-10-25T03:58:58.085Z,100.00
2022-10-25T04:01:27.957Z,100.00
2022-10-25T04:03:57.784Z,100.00
2022-10-25T04:06:30.094Z,100.00
2022-10-25T04:09:00.267Z,100.00
2022-10-25T04:11:30.068Z,100.00
2022-10-25T04:13:59.816Z,100.00
2022-10-25T04:16:29.624Z,100.00
2022-10-25T04:18:59.498Z,100.00
2022-10-25T04:21:31.881Z,100.00
2022-10-25T04:24:04.258Z,100.00
2022-10-25T04:26:35.029Z,100.00
2022-10-25T04:29:05.060Z,100.00
2022-10-25T04:31:35.685Z,100.00
2022-10-25T04:34:05.708Z,100.00
2022-10-25T04:36:39.105Z,100.00
2022-10-25T04:39:09.379Z,100.00
2022-10-25T04:41:39.204Z,100.00
2022-10-25T04:44:08.994Z,100.00
2022-10-25T04:46:38.708Z,100.00
2022-10-25T04:49:08.420Z,100.00
2022-10-25T04:51:40.840Z,100.00
2022-10-25T04:54:10.716Z,100.00
2022-10-25T04:56:40.434Z,100.00
2022-10-25T04:59:11.825Z,100.00
2022-10-25T05:01:41.647Z,100.00
2022-10-25T05:04:11.580Z,100.00
2022-10-25T05:06:45.978Z,100.00
2022-10-25T05:09:16.803Z,100.00
2022-10-25T05:11:46.653Z,100.00
2022-10-25T05:14:17.145Z,100.00
2022-10-25T05:16:53.000Z,100.00
2022-10-25T05:19:23.862Z,100.00
2022-10-25T05:21:57.337Z,100.00
2022-10-25T05:24:28.201Z,100.00
2022-10-25T05:27:02.958Z,100.00
2022-10-25T05:29:33.890Z,100.00
2022-10-25T05:32:04.750Z,100.00
2022-10-25T05:34:35.629Z,100.00
2022-10-25T05:37:09.053Z,100.00
2022-10-25T05:39:40.851Z,100.00
2022-10-25T05:42:11.691Z,100.00
2022-10-25T05:44:42.532Z,100.00
2022-10-25T05:47:13.451Z,100.00
2022-10-25T05:49:44.281Z,100.00
2022-10-25T05:52:17.687Z,100.00
2022-10-25T05:54:48.534Z,100.00
2022-10-25T05:57:18.532Z,100.00
2022-10-25T05:59:49.374Z,100.00
2022-10-25T06:02:20.348Z,100.00
2022-10-25T06:04:53.810Z,100.00
2022-10-25T06:07:27.276Z,100.00
2022-10-25T06:09:57.040Z,100.00
2022-10-25T06:12:27.972Z,100.00
2022-10-25T06:14:58.964Z,100.00
2022-10-25T06:17:29.382Z,100.00
2022-10-25T06:20:00.370Z,100.00
2022-10-25T06:22:33.236Z,100.00
2022-10-25T06:25:03.310Z,100.00
2022-10-25T06:27:33.304Z,100.00
2022-10-25T06:30:03.409Z,100.00
2022-10-25T06:32:33.664Z,100.00
2022-10-25T06:35:04.906Z,100.00
2022-10-25T06:37:37.513Z,100.00
2022-10-25T06:40:09.230Z,100.00
2022-10-25T06:42:39.286Z,100.00
2022-10-25T06:45:09.979Z,100.00
2022-10-25T06:47:40.819Z,100.00
2022-10-25T06:50:11.929Z,100.00
2022-10-25T06:52:45.650Z,100.00
2022-10-25T06:55:15.686Z,100.00
2022-10-25T06:57:45.495Z,100.00
2022-10-25T07:00:16.106Z,100.00
2022-10-25T07:02:47.042Z,100.00
2022-10-25T07:05:17.168Z,100.00
2022-10-25T07:07:50.511Z,100.00
2022-10-25T07:10:22.256Z,100.00
2022-10-25T07:12:53.040Z,100.00
2022-10-25T07:15:25.098Z,100.00
2022-10-25T07:17:57.740Z,100.00
2022-10-25T07:20:28.675Z,100.00
2022-10-25T07:23:03.353Z,100.00
2022-10-25T07:25:37.180Z,100.00
2022-10-25T07:28:07.402Z,100.00
2022-10-25T07:30:38.328Z,100.00
2022-10-25T07:33:09.073Z,100.00
2022-10-25T07:35:52.224Z,100.00
2022-10-25T07:38:33.330Z,100.00
2022-10-25T07:41:04.594Z,100.00
2022-10-25T07:43:35.472Z,100.00
2022-10-25T07:46:08.032Z,100.00
2022-10-25T07:48:38.343Z,100.00
2022-10-25T07:51:11.208Z,100.00
2022-10-25T07:53:44.027Z,100.00
2022-10-25T07:56:20.466Z,100.00
2022-10-25T07:58:54.589Z,100.00
2022-10-25T08:01:27.359Z,100.00
2022-10-25T08:03:58.548Z,100.00
2022-10-25T08:06:29.411Z,99.50
2022-10-25T08:09:09.751Z,98.14
2022-10-25T08:11:45.012Z,99.08
2022-10-25T08:14:15.977Z,98.21
2022-10-25T08:16:47.189Z,98.05
2022-10-25T08:19:18.046Z,98.25
2022-10-25T08:21:49.248Z,98.34
2022-10-25T08:24:22.701Z,97.79
2022-10-25T08:26:53.514Z,96.22
2022-10-25T08:29:24.371Z,96.61
2022-10-25T08:31:55.179Z,97.06
2022-10-25T08:34:29.577Z,95.06
2022-10-25T08:37:03.204Z,96.98
2022-10-25T08:39:40.643Z,96.50
2022-10-25T08:42:18.390Z,97.34
2022-10-25T08:44:58.598Z,95.92
2022-10-25T08:47:34.065Z,96.60
2022-10-25T08:50:09.232Z,96.37
2022-10-25T08:52:43.084Z,95.66
2022-10-25T08:55:20.470Z,95.45
2022-10-25T08:57:52.095Z,95.45
2022-10-25T09:00:24.776Z,94.84
2022-10-25T09:02:57.253Z,94.35
2022-10-25T09:05:39.337Z,94.60
2022-10-25T09:08:24.941Z,95.37
2022-10-25T09:11:06.455Z,94.89
2022-10-25T09:13:45.781Z,95.40
2022-10-25T09:16:19.515Z,94.70
2022-10-25T09:18:54.162Z,94.51
2022-10-25T09:21:31.622Z,94.88
2022-10-25T09:24:05.232Z,93.15
2022-10-25T09:26:49.072Z,93.23
2022-10-25T09:29:25.888Z,93.78
2022-10-25T09:32:01.720Z,93.76
2022-10-25T09:34:35.717Z,92.99
2022-10-25T09:37:12.996Z,92.44
2022-10-25T09:39:46.876Z,90.87
2022-10-25T09:42:24.532Z,88.41
2022-10-25T09:44:59.608Z,89.59
2022-10-25T09:47:39.144Z,88.99
2022-10-25T09:50:18.518Z,88.32
2022-10-25T09:53:00.877Z,88.48
2022-10-25T09:55:37.923Z,88.63
2022-10-25T09:58:14.024Z,88.84
2022-10-25T10:00:44.906Z,89.15
2022-10-25T10:03:15.772Z,86.87
2022-10-25T10:05:51.731Z,87.98
2022-10-25T10:08:22.499Z,88.02
2022-10-25T10:10:53.702Z,86.74
2022-10-25T10:13:33.889Z,86.89
2022-10-25T10:16:08.000Z,87.93
2022-10-25T10:18:38.113Z,88.48
2022-10-25T10:21:15.286Z,88.48
2022-10-25T10:23:53.172Z,87.24
2022-10-25T10:26:31.341Z,88.44
2022-10-25T10:29:18.932Z,87.61
2022-10-25T10:31:51.264Z,88.17
2022-10-25T10:34:27.976Z,88.32
2022-10-25T10:37:07.477Z,88.27
2022-10-25T10:39:37.435Z,88.62
2022-10-25T10:42:18.570Z,86.45
2022-10-25T10:45:12.372Z,86.51
2022-10-25T10:47:46.813Z,85.58
2022-10-25T10:50:27.013Z,85.83
2022-10-25T10:53:01.110Z,85.82
2022-10-25T10:55:33.559Z,85.64
2022-10-25T10:58:05.911Z,86.77
2022-10-25T11:00:38.760Z,85.55
2022-10-25T11:03:08.696Z,86.05
2022-10-25T11:05:43.865Z,85.94
2022-10-25T11:08:21.884Z,84.73
2022-10-25T11:10:51.768Z,85.52
2022-10-25T11:13:25.601Z,83.86
2022-10-25T11:16:11.123Z,81.56
2022-10-25T11:19:03.214Z,82.16
2022-10-25T11:21:56.676Z,82.37
2022-10-25T11:24:36.585Z,82.87
2022-10-25T11:27:16.187Z,82.44
2022-10-25T11:30:02.200Z,82.04
2022-10-25T11:32:57.589Z,81.26
2022-10-25T11:35:45.619Z,81.31
2022-10-25T11:38:22.829Z,81.11
2022-10-25T11:41:03.200Z,80.91
2022-10-25T11:43:52.047Z,79.71
2022-10-25T11:46:31.036Z,78.31
2022-10-25T11:49:30.242Z,77.14
2022-10-25T11:52:24.851Z,78.06
2022-10-25T11:55:02.372Z,78.41
2022-10-25T11:57:43.423Z,79.63
2022-10-25T12:00:18.946Z,79.43
2022-10-25T12:03:05.936Z,78.69
2022-10-25T12:05:48.053Z,76.31
2022-10-25T12:08:32.097Z,76.88
2022-10-25T12:11:08.815Z,75.78
2022-10-25T12:13:45.734Z,75.71
2022-10-25T12:16:20.435Z,71.85
2022-10-25T12:18:54.084Z,72.35
2022-10-25T12:21:31.045Z,72.91
2022-10-25T12:24:05.303Z,72.95
2022-10-25T12:26:39.184Z,73.15
2022-10-25T12:29:19.202Z,73.24
2022-10-25T12:31:56.818Z,74.12
2022-10-25T12:34:35.521Z,73.43
2022-10-25T12:37:16.520Z,74.31
2022-10-25T12:39:48.553Z,74.23
2022-10-25T12:42:23.034Z,74.39
2022-10-25T12:45:08.194Z,73.29
2022-10-25T12:47:57.261Z,72.34
2022-10-25T12:50:49.994Z,73.18
2022-10-25T12:53:51.164Z,72.79
2022-10-25T12:56:35.481Z,74.00
2022-10-25T12:59:11.970Z,75.32
2022-10-25T13:02:25.869Z,74.39
2022-10-25T13:05:09.851Z,74.13
2022-10-25T13:07:41.621Z,74.17
2022-10-25T13:10:23.861Z,75.43
2022-10-25T13:13:03.051Z,73.79
2022-10-25T13:15:45.036Z,74.02
2022-10-25T13:18:30.006Z,73.76
2022-10-25T13:21:02.096Z,74.88
2022-10-25T13:24:03.725Z,74.65
2022-10-25T13:27:15.026Z,75.02
2022-10-25T13:29:51.337Z,76.14
2022-10-25T13:32:22.938Z,76.40
2022-10-25T13:34:53.834Z,75.20
2022-10-25T13:37:46.822Z,75.30
2022-10-25T13:40:24.565Z,73.00
2022-10-25T13:43:09.079Z,74.13
2022-10-25T13:45:43.350Z,75.61
2022-10-25T13:48:32.376Z,73.88
2022-10-25T13:51:09.848Z,73.41
2022-10-25T13:53:44.167Z,73.98
2022-10-25T13:56:17.435Z,74.13
2022-10-25T13:58:52.854Z,73.87
2022-10-25T14:01:57.370Z,72.94
2022-10-25T14:04:38.899Z,74.15
2022-10-25T14:07:39.620Z,74.14
2022-10-25T14:10:15.304Z,74.72
2022-10-25T14:12:51.028Z,74.68
2022-10-25T14:15:38.321Z,72.37
2022-10-25T14:18:18.040Z,72.71
2022-10-25T14:20:50.626Z,72.37
2022-10-25T14:23:24.776Z,72.67
2022-10-25T14:25:58.607Z,71.21
2022-10-25T14:28:30.328Z,72.13
2022-10-25T14:31:04.375Z,72.04
2022-10-25T14:33:39.425Z,71.71
2022-10-25T14:36:23.499Z,71.96
2022-10-25T14:38:56.043Z,71.65
2022-10-25T14:41:28.755Z,73.07
2022-10-25T14:44:00.679Z,72.28
2022-10-25T14:46:36.363Z,71.86
2022-10-25T14:49:11.658Z,72.56
2022-10-25T14:51:46.223Z,72.70
2022-10-25T14:54:28.732Z,73.16
2022-10-25T14:57:03.323Z,73.49
2022-10-25T14:59:42.506Z,74.25
2022-10-25T15:02:20.659Z,71.94
2022-10-25T15:04:53.774Z,72.23
2022-10-25T15:07:27.061Z,72.88
2022-10-25T15:10:00.159Z,73.19
2022-10-25T15:12:37.202Z,72.54
2022-10-25T15:15:34.103Z,71.97
2022-10-25T15:18:07.647Z,73.50
2022-10-25T15:20:38.440Z,73.31
2022-10-25T15:23:18.170Z,74.63
2022-10-25T15:25:48.087Z,74.57
2022-10-25T15:28:20.624Z,75.63
2022-10-25T15:31:05.091Z,75.64
2022-10-25T15:33:38.432Z,76.46
2022-10-25T15:36:10.026Z,77.16
2022-10-25T15:39:06.185Z,78.12
2022-10-25T15:41:31.694Z,79.17
2022-10-25T15:44:02.628Z,79.47
2022-10-25T15:46:35.671Z,79.99
2022-10-25T15:49:10.073Z,80.46
2022-10-25T15:51:44.909Z,80.92
2022-10-25T15:54:18.270Z,81.27
2022-10-25T15:56:54.171Z,81.40
2022-10-25T15:59:25.018Z,81.67
2022-10-25T16:01:56.162Z,81.71
2022-10-25T16:04:29.853Z,81.83
2022-10-25T16:07:00.838Z,82.24
2022-10-25T16:09:32.346Z,82.15
2022-10-25T16:12:02.758Z,83.05
2022-10-25T16:14:32.680Z,83.25
2022-10-25T16:17:03.487Z,82.85
2022-10-25T16:19:36.936Z,82.66
2022-10-25T16:22:07.750Z,82.65
2022-10-25T16:24:38.615Z,82.34
2022-10-25T16:27:09.359Z,82.91
2022-10-25T16:29:41.370Z,82.80
2022-10-25T16:32:12.199Z,82.96
2022-10-25T16:34:46.193Z,82.54
2022-10-25T16:37:16.942Z,82.95
2022-10-25T16:39:47.766Z,83.29
2022-10-25T16:42:32.073Z,82.68
2022-10-25T16:45:03.679Z,83.38
2022-10-25T16:47:34.740Z,83.14
2022-10-25T16:50:09.878Z,83.02
2022-10-25T16:52:41.784Z,83.54
2022-10-25T16:55:13.522Z,83.58
2022-10-25T16:57:44.415Z,84.21
2022-10-25T17:00:16.438Z,85.26
2022-10-25T17:02:51.383Z,85.24
2022-10-25T17:05:28.015Z,84.95
2022-10-25T17:07:59.033Z,85.52
2022-10-25T17:10:29.908Z,86.11
2022-10-25T17:13:03.296Z,85.90
2022-10-25T17:15:34.515Z,86.17
2022-10-25T17:18:05.369Z,85.67
2022-10-25T17:20:38.200Z,85.33
2022-10-25T17:23:09.009Z,85.19
2022-10-25T17:25:40.069Z,85.21
2022-10-25T17:28:10.825Z,85.30
2022-10-25T17:30:44.115Z,85.49
2022-10-25T17:33:14.889Z,85.47
2022-10-25T17:35:48.313Z,85.46
2022-10-25T17:38:19.380Z,86.00
2022-10-25T17:40:51.264Z,85.57
2022-10-25T17:43:21.092Z,85.99
2022-10-25T17:45:52.031Z,86.33
2022-10-25T17:48:22.887Z,85.97
2022-10-25T17:50:55.588Z,86.35
2022-10-25T17:53:26.421Z,86.73
2022-10-25T17:55:57.224Z,86.60
2022-10-25T17:58:28.053Z,86.19
2022-10-25T18:00:57.804Z,86.18
2022-10-25T18:03:31.429Z,85.46
2022-10-25T18:06:06.040Z,85.40
2022-10-25T18:08:39.124Z,85.63
2022-10-25T18:11:13.182Z,85.74
2022-10-25T18:13:44.444Z,86.39
2022-10-25T18:16:17.022Z,86.29
2022-10-25T18:18:46.862Z,86.73
2022-10-25T18:21:20.573Z,86.88
2022-10-25T18:23:52.463Z,87.31
2022-10-25T18:26:23.304Z,87.59
2022-10-25T18:28:55.211Z,87.47
2022-10-25T18:31:27.224Z,87.53
2022-10-25T18:34:03.385Z,87.90
2022-10-25T18:36:36.004Z,87.98
2022-10-25T18:39:07.282Z,88.06
2022-10-25T18:41:40.935Z,88.33
2022-10-25T18:44:15.075Z,88.41
2022-10-25T18:46:45.486Z,88.33
2022-10-25T18:49:16.818Z,87.88
2022-10-25T18:51:49.266Z,87.96
2022-10-25T18:54:19.026Z,89.23
2022-10-25T18:56:48.942Z,90.21
2022-10-25T18:59:18.769Z,90.75
2022-10-25T19:01:49.888Z,90.17
2022-10-25T19:04:19.718Z,90.34
2022-10-25T19:06:52.384Z,89.76
2022-10-25T19:09:22.256Z,89.30
2022-10-25T19:11:52.232Z,89.01
2022-10-25T19:14:24.191Z,88.40
2022-10-25T19:16:54.199Z,88.63
2022-10-25T19:19:24.231Z,88.64
2022-10-25T19:21:58.199Z,88.58
2022-10-25T19:24:28.730Z,88.45
2022-10-25T19:26:59.590Z,88.82
2022-10-25T19:29:29.572Z,88.42
2022-10-25T19:32:00.396Z,88.58
2022-10-25T19:34:30.320Z,88.26
2022-10-25T19:37:04.485Z,88.04
2022-10-25T19:39:34.410Z,88.06
2022-10-25T19:42:04.555Z,88.48
2022-10-25T19:44:34.342Z,88.52
2022-10-25T19:47:04.168Z,89.00
2022-10-25T19:49:34.750Z,88.98
2022-10-25T19:52:07.515Z,88.80
2022-10-25T19:54:38.551Z,89.26
2022-10-25T19:57:08.828Z,88.88
2022-10-25T19:59:38.604Z,89.26
2022-10-25T20:02:09.682Z,89.31
2022-10-25T20:04:39.648Z,89.33
2022-10-25T20:07:13.096Z,89.42
2022-10-25T20:09:42.962Z,89.82
2022-10-25T20:12:12.730Z,90.06
2022-10-25T20:14:42.909Z,90.12
2022-10-25T20:17:14.187Z,90.18
2022-10-25T20:19:43.919Z,90.22
2022-10-25T20:22:17.591Z,90.64
2022-10-25T20:24:47.363Z,90.75
2022-10-25T20:27:18.159Z,90.92
2022-10-25T20:29:47.987Z,91.40
2022-10-25T20:32:17.791Z,91.42
2022-10-25T20:34:48.592Z,91.11
2022-10-25T20:37:21.010Z,91.17
2022-10-25T20:39:51.855Z,91.23
2022-10-25T20:42:21.627Z,91.27
2022-10-25T20:44:53.441Z,90.80
2022-10-25T20:47:24.255Z,90.85
2022-10-25T20:49:54.990Z,90.85
2022-10-25T20:52:27.394Z,90.64
2022-10-25T20:57:48.641Z,91.13
2022-10-25T21:00:20.603Z,91.18
2022-10-25T21:02:50.607Z,91.09
2022-10-25T21:05:21.437Z,90.28
2022-10-25T21:07:54.830Z,90.05
2022-10-25T21:10:25.679Z,90.41
2022-10-25T21:12:56.475Z,90.32
2022-10-25T21:15:26.285Z,89.72
2022-10-25T21:17:57.147Z,90.17
2022-10-25T21:20:26.976Z,90.18
2022-10-25T21:23:01.010Z,90.13
2022-10-25T21:25:30.879Z,90.21
2022-10-25T21:28:00.679Z,90.12
2022-10-25T21:30:30.559Z,90.16
2022-10-25T21:33:00.423Z,90.34
2022-10-25T21:35:30.217Z,89.90
2022-10-25T21:38:02.628Z,90.02
2022-10-25T21:40:32.437Z,90.35
2022-10-25T21:43:02.219Z,89.99
2022-10-25T21:45:32.066Z,90.11
2022-10-25T21:48:01.855Z,90.41
2022-10-25T21:50:31.678Z,90.44
2022-10-25T21:53:04.141Z,90.62
2022-10-25T21:55:33.975Z,90.84
2022-10-25T21:58:03.765Z,90.55
2022-10-25T22:00:33.513Z,90.06
2022-10-25T22:03:03.275Z,90.09
2022-10-25T22:05:33.145Z,90.33
2022-10-25T22:08:05.636Z,90.22
2022-10-25T22:10:35.396Z,90.67
2022-10-25T22:13:05.308Z,91.22
2022-10-25T22:15:35.047Z,91.16
2022-10-25T22:18:04.762Z,91.39
2022-10-25T22:20:34.539Z,92.16
2022-10-25T22:23:06.946Z,93.28
2022-10-25T22:25:36.703Z,93.44
2022-10-25T22:28:06.665Z,94.60
2022-10-25T22:30:36.416Z,94.61
2022-10-25T22:33:06.162Z,94.42
2022-10-25T22:35:36.444Z,93.15
2022-10-25T22:38:08.814Z,94.18
2022-10-25T22:40:38.571Z,94.44
2022-10-25T22:43:08.307Z,94.18
2022-10-25T22:45:38.486Z,94.22
2022-10-25T22:48:08.490Z,94.11
2022-10-25T22:50:38.325Z,94.04
2022-10-25T22:53:11.031Z,93.60
2022-10-25T22:55:40.763Z,92.94
2022-10-25T22:58:10.536Z,93.21
2022-10-25T23:00:40.328Z,92.54
2022-10-25T23:03:10.132Z,92.20
2022-10-25T23:05:39.878Z,92.23
2022-10-25T23:08:12.366Z,91.84
2022-10-25T23:10:42.095Z,91.94
2022-10-25T23:13:11.828Z,91.32
2022-10-25T23:15:41.848Z,91.02
2022-10-25T23:18:11.583Z,91.13
2022-10-25T23:20:41.335Z,91.18
2022-10-25T23:23:13.631Z,90.65
2022-10-25T23:25:43.392Z,91.00
2022-10-25T23:28:13.237Z,91.19
2022-10-25T23:30:43.771Z,91.54
2022-10-25T23:33:15.507Z,91.13
2022-10-25T23:35:45.294Z,90.94
2022-10-25T23:38:17.618Z,90.57
2022-10-25T23:40:49.654Z,90.87
2022-10-25T23:43:19.367Z,90.67
2022-10-25T23:45:49.172Z,90.63
2022-10-25T23:48:18.953Z,90.43
2022-10-25T23:50:48.710Z,90.62
2022-10-25T23:53:21.084Z,90.89
2022-10-25T23:55:50.879Z,91.09
2022-10-25T23:58:20.588Z,91.17
